sensor_id;sensor_type;location;lat;lon;timestamp;pressure;altitude;pressure_sealevel;temperature;humidity
55311;BME280;41173;52.634;-8.666;2024-01-11T16:44:34;103648.91;;;4.51;100.00
55311;BME280;41173;52.634;-8.666;2024-01-11T16:46:59;103643.75;;;4.74;100.00
55311;BME280;41173;52.634;-8.666;2024-01-11T16:49:25;103635.16;;;5.07;100.00
55311;BME280;41173;52.634;-8.666;2024-01-11T16:51:50;103629.63;;;5.14;100.00
55311;BME280;41173;52.634;-8.666;2024-01-11T16:54:16;103624.34;;;5.24;100.00
55311;BME280;41173;52.634;-8.666;2024-01-11T16:56:41;103627.13;;;5.38;100.00
55311;BME280;41173;52.634;-8.666;2024-01-11T16:59:06;103617.81;;;5.41;100.00
55311;BME280;41173;52.634;-8.666;2024-01-11T17:01:32;103623.97;;;5.42;100.00
55311;BME280;41173;52.634;-8.666;2024-01-11T17:03:58;103632.28;;;5.48;100.00
55311;BME280;41173;52.634;-8.666;2024-01-11T17:06:24;103641.94;;;5.49;100.00
55311;BME280;41173;52.634;-8.666;2024-01-11T17:08:50;103641.38;;;5.53;100.00
55311;BME280;41173;52.634;-8.666;2024-01-11T17:11:16;103639.91;;;5.57;100.00
55311;BME280;41173;52.634;-8.666;2024-01-11T17:13:41;103635.63;;;5.57;100.00
55311;BME280;41173;52.634;-8.666;2024-01-11T17:16:06;103642.66;;;5.58;100.00
55311;BME280;41173;52.634;-8.666;2024-01-11T17:18:33;103648.69;;;5.57;100.00
55311;BME280;41173;52.634;-8.666;2024-01-11T17:20:58;103652.44;;;5.61;100.00
55311;BME280;41173;52.634;-8.666;2024-01-11T17:23:24;103653.84;;;5.68;100.00
55311;BME280;41173;52.634;-8.666;2024-01-11T17:25:49;103658.38;;;5.70;100.00
55311;BME280;41173;52.634;-8.666;2024-01-11T17:28:15;103655.19;;;5.74;100.00
55311;BME280;41173;52.634;-8.666;2024-01-11T17:30:40;103656.34;;;5.78;100.00
55311;BME280;41173;52.634;-8.666;2024-01-11T17:33:05;103669.19;;;5.75;100.00
55311;BME280;41173;52.634;-8.666;2024-01-11T17:35:31;103659.97;;;5.68;100.00
55311;BME280;41173;52.634;-8.666;2024-01-11T17:37:56;103668.94;;;5.72;100.00
55311;BME280;41173;52.634;-8.666;2024-01-11T17:40:22;103675.06;;;5.72;100.00
55311;BME280;41173;52.634;-8.666;2024-01-11T17:42:47;103682.25;;;5.75;100.00
55311;BME280;41173;52.634;-8.666;2024-01-11T17:45:13;103691.00;;;5.75;100.00
55311;BME280;41173;52.634;-8.666;2024-01-11T17:47:38;103687.47;;;5.75;100.00
55311;BME280;41173;52.634;-8.666;2024-01-11T17:50:04;103689.97;;;5.73;100.00
55311;BME280;41173;52.634;-8.666;2024-01-11T17:52:29;103692.34;;;5.70;100.00
55311;BME280;41173;52.634;-8.666;2024-01-11T17:54:56;103689.97;;;5.73;100.00
55311;BME280;41173;52.634;-8.666;2024-01-11T17:57:21;103697.13;;;5.76;100.00
55311;BME280;41173;52.634;-8.666;2024-01-11T17:59:49;103697.00;;;5.74;100.00
55311;BME280;41173;52.634;-8.666;2024-01-11T18:02:15;103694.16;;;5.71;100.00
55311;BME280;41173;52.634;-8.666;2024-01-11T18:04:43;103705.53;;;5.72;100.00
55311;BME280;41173;52.634;-8.666;2024-01-11T18:07:09;103698.34;;;5.69;100.00
55311;BME280;41173;52.634;-8.666;2024-01-11T18:09:35;103708.69;;;5.68;100.00
55311;BME280;41173;52.634;-8.666;2024-01-11T18:12:00;103715.72;;;5.69;100.00
55311;BME280;41173;52.634;-8.666;2024-01-11T18:14:26;103711.31;;;5.68;100.00
55311;BME280;41173;52.634;-8.666;2024-01-11T18:16:51;103714.00;;;5.69;100.00
55311;BME280;41173;52.634;-8.666;2024-01-11T18:19:17;103706.88;;;5.67;100.00
55311;BME280;41173;52.634;-8.666;2024-01-11T18:21:42;103711.41;;;5.69;100.00
55311;BME280;41173;52.634;-8.666;2024-01-11T18:24:08;103716.09;;;5.73;100.00
55311;BME280;41173;52.634;-8.666;2024-01-11T18:26:33;103715.97;;;5.72;100.00
55311;BME280;41173;52.634;-8.666;2024-01-11T18:29:00;103720.50;;;5.74;100.00
55311;BME280;41173;52.634;-8.666;2024-01-11T18:31:25;103730.88;;;5.73;100.00
55311;BME280;41173;52.634;-8.666;2024-01-11T18:33:50;103716.88;;;5.72;100.00
55311;BME280;41173;52.634;-8.666;2024-01-11T18:36:19;103716.34;;;5.76;100.00
55311;BME280;41173;52.634;-8.666;2024-01-11T18:38:44;103720.63;;;5.76;100.00
55311;BME280;41173;52.634;-8.666;2024-01-11T18:41:10;103717.81;;;5.73;100.00
55311;BME280;41173;52.634;-8.666;2024-01-11T18:43:36;103721.31;;;5.73;100.00
55311;BME280;41173;52.634;-8.666;2024-01-11T18:46:01;103723.81;;;5.72;100.00
55311;BME280;41173;52.634;-8.666;2024-01-11T18:48:27;103726.28;;;5.70;100.00
55311;BME280;41173;52.634;-8.666;2024-01-11T18:50:53;103725.41;;;5.70;100.00
55311;BME280;41173;52.634;-8.666;2024-01-11T18:53:18;103721.50;;;5.64;100.00
55311;BME280;41173;52.634;-8.666;2024-01-11T18:55:44;103728.91;;;5.70;100.00
55311;BME280;41173;52.634;-8.666;2024-01-11T18:58:10;103726.53;;;5.73;100.00
55311;BME280;41173;52.634;-8.666;2024-01-11T19:00:35;103736.94;;;5.61;100.00
55311;BME280;41173;52.634;-8.666;2024-01-11T19:03:02;103734.56;;;5.64;100.00
55311;BME280;41173;52.634;-8.666;2024-01-11T19:05:28;103740.56;;;5.63;100.00
55311;BME280;41173;52.634;-8.666;2024-01-11T19:07:53;103744.59;;;5.70;100.00
55311;BME280;41173;52.634;-8.666;2024-01-11T19:10:19;103737.31;;;5.66;100.00
55311;BME280;41173;52.634;-8.666;2024-01-11T19:12:44;103737.44;;;5.68;100.00
55311;BME280;41173;52.634;-8.666;2024-01-11T19:15:10;103735.03;;;5.71;100.00
55311;BME280;41173;52.634;-8.666;2024-01-11T19:17:35;103728.91;;;5.70;100.00
55311;BME280;41173;52.634;-8.666;2024-01-11T19:20:01;103737.31;;;5.66;100.00
55311;BME280;41173;52.634;-8.666;2024-01-11T19:22:26;103738.84;;;5.64;100.00
55311;BME280;41173;52.634;-8.666;2024-01-11T19:24:52;103740.69;;;5.65;100.00
55311;BME280;41173;52.634;-8.666;2024-01-11T19:27:17;103738.66;;;5.61;100.00
55311;BME280;41173;52.634;-8.666;2024-01-11T19:29:43;103745.78;;;5.63;100.00
55311;BME280;41173;52.634;-8.666;2024-01-11T19:32:09;103750.38;;;5.66;100.00
55311;BME280;41173;52.634;-8.666;2024-01-11T19:34:36;103748.66;;;5.67;100.00
55311;BME280;41173;52.634;-8.666;2024-01-11T19:37:01;103756.63;;;5.68;100.00
55311;BME280;41173;52.634;-8.666;2024-01-11T19:39:27;103760.69;;;5.64;100.00
55311;BME280;41173;52.634;-8.666;2024-01-11T19:41:52;103765.91;;;5.64;100.00
55311;BME280;41173;52.634;-8.666;2024-01-11T19:44:18;103765.41;;;5.58;100.00
55311;BME280;41173;52.634;-8.666;2024-01-11T19:46:43;103753.38;;;5.60;100.00
55311;BME280;41173;52.634;-8.666;2024-01-11T19:49:10;103756.25;;;5.63;100.00
55311;BME280;41173;52.634;-8.666;2024-01-11T19:51:36;103766.34;;;5.59;100.00
55311;BME280;41173;52.634;-8.666;2024-01-11T19:54:02;103761.22;;;5.60;100.00
55311;BME280;41173;52.634;-8.666;2024-01-11T19:56:29;103764.78;;;5.61;100.00
55311;BME280;41173;52.634;-8.666;2024-01-11T19:58:54;103760.75;;;5.54;100.00
55311;BME280;41173;52.634;-8.666;2024-01-11T20:01:19;103759.16;;;5.56;100.00
55311;BME280;41173;52.634;-8.666;2024-01-11T20:03:45;103761.34;;;5.62;100.00
55311;BME280;41173;52.634;-8.666;2024-01-11T20:06:11;103764.38;;;5.56;100.00
55311;BME280;41173;52.634;-8.666;2024-01-11T20:08:38;103764.94;;;5.52;100.00
55311;BME280;41173;52.634;-8.666;2024-01-11T20:11:04;103762.47;;;5.54;100.00
55311;BME280;41173;52.634;-8.666;2024-01-11T20:13:32;103773.13;;;5.57;100.00
55311;BME280;41173;52.634;-8.666;2024-01-11T20:15:57;103777.56;;;5.58;100.00
55311;BME280;41173;52.634;-8.666;2024-01-11T20:18:22;103785.72;;;5.51;100.00
55311;BME280;41173;52.634;-8.666;2024-01-11T20:20:48;103782.28;;;5.52;100.00
55311;BME280;41173;52.634;-8.666;2024-01-11T20:23:13;103782.53;;;5.55;100.00
55311;BME280;41173;52.634;-8.666;2024-01-11T20:25:39;103786.19;;;5.57;100.00
55311;BME280;41173;52.634;-8.666;2024-01-11T20:28:05;103786.88;;;5.54;100.00
55311;BME280;41173;52.634;-8.666;2024-01-11T20:30:31;103788.56;;;5.54;100.00
55311;BME280;41173;52.634;-8.666;2024-01-11T20:32:57;103783.09;;;5.51;100.00
55311;BME280;41173;52.634;-8.666;2024-01-11T20:35:22;103796.16;;;5.51;100.00
55311;BME280;41173;52.634;-8.666;2024-01-11T20:37:48;103793.56;;;5.51;100.00
55311;BME280;41173;52.634;-8.666;2024-01-11T20:40:13;103790.69;;;5.47;100.00
55311;BME280;41173;52.634;-8.666;2024-01-11T20:42:39;103787.03;;;5.45;100.00
55311;BME280;41173;52.634;-8.666;2024-01-11T20:45:05;103785.72;;;5.51;100.00
55311;BME280;41173;52.634;-8.666;2024-01-11T20:47:31;103790.00;;;5.50;100.00
55311;BME280;41173;52.634;-8.666;2024-01-11T20:49:57;103789.09;;;5.50;100.00
55311;BME280;41173;52.634;-8.666;2024-01-11T20:52:23;103787.00;;;5.56;100.00
55311;BME280;41173;52.634;-8.666;2024-01-11T20:54:48;103792.38;;;5.47;100.00
55311;BME280;41173;52.634;-8.666;2024-01-11T20:57:13;103790.56;;;5.46;100.00
55311;BME280;41173;52.634;-8.666;2024-01-11T20:59:39;103783.78;;;5.38;100.00
55311;BME280;41173;52.634;-8.666;2024-01-11T21:02:06;103796.72;;;5.36;100.00
55311;BME280;41173;52.634;-8.666;2024-01-11T21:04:32;103795.16;;;5.38;100.00
55311;BME280;41173;52.634;-8.666;2024-01-11T21:06:57;103800.13;;;5.35;100.00
55311;BME280;41173;52.634;-8.666;2024-01-11T21:09:23;103803.53;;;5.34;100.00
55311;BME280;41173;52.634;-8.666;2024-01-11T21:11:48;103806.69;;;5.30;100.00
55311;BME280;41173;52.634;-8.666;2024-01-11T21:14:14;103807.16;;;5.36;100.00
55311;BME280;41173;52.634;-8.666;2024-01-11T21:16:39;103806.81;;;5.32;100.00
55311;BME280;41173;52.634;-8.666;2024-01-11T21:19:04;103797.69;;;5.26;100.00
55311;BME280;41173;52.634;-8.666;2024-01-11T21:21:31;103791.78;;;5.29;100.00
55311;BME280;41173;52.634;-8.666;2024-01-11T21:23:57;103800.56;;;5.30;100.00
55311;BME280;41173;52.634;-8.666;2024-01-11T21:26:28;103791.66;;;5.27;100.00
55311;BME280;41173;52.634;-8.666;2024-01-11T21:28:54;103803.69;;;5.25;100.00
55311;BME280;41173;52.634;-8.666;2024-01-11T21:31:23;103802.22;;;5.29;100.00
55311;BME280;41173;52.634;-8.666;2024-01-11T21:33:50;103795.50;;;5.21;100.00
55311;BME280;41173;52.634;-8.666;2024-01-11T21:36:17;103795.38;;;5.19;100.00
55311;BME280;41173;52.634;-8.666;2024-01-11T21:38:49;103799.16;;;5.13;100.00
55311;BME280;41173;52.634;-8.666;2024-01-11T21:41:14;103799.66;;;5.19;100.00
55311;BME280;41173;52.634;-8.666;2024-01-11T21:43:39;103794.22;;;5.16;100.00
55311;BME280;41173;52.634;-8.666;2024-01-11T21:46:05;103802.13;;;5.17;100.00
55311;BME280;41173;52.634;-8.666;2024-01-11T21:48:33;103801.09;;;5.15;100.00
55311;BME280;41173;52.634;-8.666;2024-01-11T21:50:58;103804.66;;;5.16;100.00
55311;BME280;41173;52.634;-8.666;2024-01-11T21:53:23;103806.72;;;5.20;100.00
55311;BME280;41173;52.634;-8.666;2024-01-11T21:55:54;103807.78;;;5.12;100.00
55311;BME280;41173;52.634;-8.666;2024-01-11T21:58:20;103807.47;;;5.19;100.00
55311;BME280;41173;52.634;-8.666;2024-01-11T22:00:45;103808.28;;;5.18;100.00
55311;BME280;41173;52.634;-8.666;2024-01-11T22:03:11;103811.94;;;5.20;100.00
55311;BME280;41173;52.634;-8.666;2024-01-11T22:05:36;103811.41;;;5.14;100.00
55311;BME280;41173;52.634;-8.666;2024-01-11T22:08:02;103805.00;;;5.20;100.00
55311;BME280;41173;52.634;-8.666;2024-01-11T22:10:27;103790.66;;;5.15;100.00
55311;BME280;41173;52.634;-8.666;2024-01-11T22:12:53;103802.03;;;5.16;100.00
55311;BME280;41173;52.634;-8.666;2024-01-11T22:15:18;103794.97;;;5.15;100.00
55311;BME280;41173;52.634;-8.666;2024-01-11T22:17:43;103790.81;;;5.06;100.00
55311;BME280;41173;52.634;-8.666;2024-01-11T22:20:11;103793.31;;;5.05;100.00
55311;BME280;41173;52.634;-8.666;2024-01-11T22:22:36;103792.66;;;5.07;100.00
55311;BME280;41173;52.634;-8.666;2024-01-11T22:25:02;103782.09;;;4.96;100.00
55311;BME280;41173;52.634;-8.666;2024-01-11T22:27:28;103786.75;;;5.10;100.00
55311;BME280;41173;52.634;-8.666;2024-01-11T22:29:53;103801.00;;;5.03;100.00
55311;BME280;41173;52.634;-8.666;2024-01-11T22:32:19;103790.56;;;5.03;100.00
55311;BME280;41173;52.634;-8.666;2024-01-11T22:34:44;103789.25;;;5.08;100.00
55311;BME280;41173;52.634;-8.666;2024-01-11T22:37:10;103778.97;;;5.00;100.00
55311;BME280;41173;52.634;-8.666;2024-01-11T22:39:35;103777.63;;;5.05;100.00
55311;BME280;41173;52.634;-8.666;2024-01-11T22:42:01;103770.47;;;5.13;100.00
55311;BME280;41173;52.634;-8.666;2024-01-11T22:44:26;103781.53;;;5.10;100.00
55311;BME280;41173;52.634;-8.666;2024-01-11T22:46:52;103776.88;;;5.06;100.00
55311;BME280;41173;52.634;-8.666;2024-01-11T22:49:17;103772.50;;;5.17;100.00
55311;BME280;41173;52.634;-8.666;2024-01-11T22:51:42;103780.91;;;5.13;100.00
55311;BME280;41173;52.634;-8.666;2024-01-11T22:54:08;103777.75;;;5.17;100.00
55311;BME280;41173;52.634;-8.666;2024-01-11T22:56:33;103769.94;;;5.06;100.00
55311;BME280;41173;52.634;-8.666;2024-01-11T22:59:01;103767.63;;;4.99;100.00
55311;BME280;41173;52.634;-8.666;2024-01-11T23:01:26;103763.97;;;4.97;100.00
55311;BME280;41173;52.634;-8.666;2024-01-11T23:03:51;103762.78;;;5.04;100.00
55311;BME280;41173;52.634;-8.666;2024-01-11T23:06:17;103759.50;;;5.06;100.00
55311;BME280;41173;52.634;-8.666;2024-01-11T23:08:42;103769.16;;;5.07;100.00
55311;BME280;41173;52.634;-8.666;2024-01-11T23:11:08;103762.91;;;5.05;100.00
55311;BME280;41173;52.634;-8.666;2024-01-11T23:13:33;103750.50;;;5.03;100.00
55311;BME280;41173;52.634;-8.666;2024-01-11T23:15:59;103757.31;;;5.01;100.00
55311;BME280;41173;52.634;-8.666;2024-01-11T23:18:26;103757.94;;;4.98;100.00
55311;BME280;41173;52.634;-8.666;2024-01-11T23:20:51;103756.41;;;5.00;100.00
55311;BME280;41173;52.634;-8.666;2024-01-11T23:23:17;103754.28;;;5.06;100.00
55311;BME280;41173;52.634;-8.666;2024-01-11T23:25:42;103750.09;;;5.08;100.00
55311;BME280;41173;52.634;-8.666;2024-01-11T23:28:08;103762.91;;;5.05;100.00
